Lr2 Pioneer — VREE7 — position and weather

sailwx.info

Track history (hours):
 
Tides and Currents Weather Stations Pressure Air Temp Water Temp Dewpoint Dewpoint Depression Visibility Wind Speed Wind Dir Waves Ship Positions

Lr2 Pioneer

Last reported at 2017-Jan-05 14:06 UTC. Time now 2017-Jan-21 21:48 UTC.
Position N 02°10' E 102°02'.
Warning: this ship's position is 16 days out of date.

Length 244 m; draft 8 m.

Type: Ship (hazmat cat A). MMSI: 477114400.

Date/timePositionNaut miles runAvg speedWind from/ knotsBaromVisibWave heightAir tempDewpointWater temp
2017-Jan-05 14:06N 02°10' E 102°02'711.8
2017-Jan-05 13:32N 02°05' E 102°06'1211.9
2017-Jan-05 12:33N 01°57' E 102°15'1211.9
2017-Jan-05 11:33N 01°52' E 102°26'1211.8
2017-Jan-05 10:33N 01°47' E 102°36'1212.0
2017-Jan-05 09:33N 01°41' E 102°47'61 1.4
2017-Jan-03 13:07N 01°11' E 103°40'6 8.4
2017-Jan-03 12:28N 01°09' E 103°45'8 8.3
2017-Jan-03 11:33N 01°12' E 103°52'9 0.3
2017-Jan-02 09:31N 01°15' E 104°00'2 0.6
2017-Jan-02 06:31N 01°17' E 103°60'0 0.0
2017-Jan-01 19:31N 01°17' E 103°60'0 0.1
2017-Jan-01 15:33N 01°17' E 103°59'2 2.1
2017-Jan-01 14:31N 01°16' E 104°01'  
Track history (hours):
 
Tides and Currents Weather Stations Pressure Air Temp Water Temp Dewpoint Dewpoint Depression Visibility Wind Speed Wind Dir Waves Ship Positions

Lr2 Pioneer

Last reported at 2017-Jan-05 14:06 UTC. Time now 2017-Jan-21 21:48 UTC.
Position N 02°10' E 102°02'.
Warning: this ship's position is 16 days out of date.

Length 244 m; draft 8 m.

Type: Ship (hazmat cat A). MMSI: 477114400.

Date/timePositionNaut miles runAvg speedWind from/ knotsBaromVisibWave heightAir tempDewpointWater temp
2017-Jan-05 14:06N 02°10' E 102°02'711.8
2017-Jan-05 13:32N 02°05' E 102°06'1211.9
2017-Jan-05 12:33N 01°57' E 102°15'1211.9
2017-Jan-05 11:33N 01°52' E 102°26'1211.8
2017-Jan-05 10:33N 01°47' E 102°36'1212.0
2017-Jan-05 09:33N 01°41' E 102°47'61 1.4
2017-Jan-03 13:07N 01°11' E 103°40'6 8.4
2017-Jan-03 12:28N 01°09' E 103°45'8 8.3
2017-Jan-03 11:33N 01°12' E 103°52'9 0.3
2017-Jan-02 09:31N 01°15' E 104°00'2 0.6
2017-Jan-02 06:31N 01°17' E 103°60'0 0.0
2017-Jan-01 19:31N 01°17' E 103°60'0 0.1
2017-Jan-01 15:33N 01°17' E 103°59'2 2.1
2017-Jan-01 14:31N 01°16' E 104°01'  

Dump ship's entire track history